sensor_id;sensor_type;location;lat;lon;timestamp;P1;durP1;ratioP1;P2;durP2;ratioP2
18752;SDS011;9505;50.882;5.350;2023-03-01T00:01:39;49.93;;;9.80;;
18752;SDS011;9505;50.882;5.350;2023-03-01T00:04:05;49.90;;;9.40;;
18752;SDS011;9505;50.882;5.350;2023-03-01T00:06:31;49.43;;;9.37;;
18752;SDS011;9505;50.882;5.350;2023-03-01T00:08:56;47.90;;;9.70;;
18752;SDS011;9505;50.882;5.350;2023-03-01T00:11:23;51.90;;;9.90;;
18752;SDS011;9505;50.882;5.350;2023-03-01T00:13:52;48.33;;;9.23;;
18752;SDS011;9505;50.882;5.350;2023-03-01T00:16:26;43.03;;;8.53;;
18752;SDS011;9505;50.882;5.350;2023-03-01T00:18:58;54.63;;;10.37;;
18752;SDS011;9505;50.882;5.350;2023-03-01T00:21:24;43.10;;;8.47;;
18752;SDS011;9505;50.882;5.350;2023-03-01T00:23:51;49.33;;;9.10;;
18752;SDS011;9505;50.882;5.350;2023-03-01T00:26:17;44.10;;;8.50;;
18752;SDS011;9505;50.882;5.350;2023-03-01T00:28:45;45.20;;;8.63;;
18752;SDS011;9505;50.882;5.350;2023-03-01T00:31:12;46.67;;;8.70;;
18752;SDS011;9505;50.882;5.350;2023-03-01T00:33:40;37.83;;;7.83;;
18752;SDS011;9505;50.882;5.350;2023-03-01T00:36:07;46.63;;;8.37;;
18752;SDS011;9505;50.882;5.350;2023-03-01T00:38:34;43.23;;;8.37;;
18752;SDS011;9505;50.882;5.350;2023-03-01T00:41:04;52.03;;;9.53;;
18752;SDS011;9505;50.882;5.350;2023-03-01T00:43:31;51.13;;;9.33;;
18752;SDS011;9505;50.882;5.350;2023-03-01T00:46:01;53.93;;;10.53;;
18752;SDS011;9505;50.882;5.350;2023-03-01T00:48:28;47.23;;;10.03;;
18752;SDS011;9505;50.882;5.350;2023-03-01T00:50:54;47.57;;;9.40;;
18752;SDS011;9505;50.882;5.350;2023-03-01T00:53:19;58.03;;;10.90;;
18752;SDS011;9505;50.882;5.350;2023-03-01T00:55:45;45.17;;;9.73;;
18752;SDS011;9505;50.882;5.350;2023-03-01T00:58:10;54.53;;;11.17;;
18752;SDS011;9505;50.882;5.350;2023-03-01T01:00:36;48.17;;;10.17;;
18752;SDS011;9505;50.882;5.350;2023-03-01T01:03:02;42.73;;;9.03;;
18752;SDS011;9505;50.882;5.350;2023-03-01T01:05:27;52.50;;;9.93;;
18752;SDS011;9505;50.882;5.350;2023-03-01T01:07:53;44.67;;;9.87;;
18752;SDS011;9505;50.882;5.350;2023-03-01T01:10:18;45.87;;;10.03;;
18752;SDS011;9505;50.882;5.350;2023-03-01T01:12:44;49.83;;;10.23;;
18752;SDS011;9505;50.882;5.350;2023-03-01T01:15:10;48.33;;;9.87;;
18752;SDS011;9505;50.882;5.350;2023-03-01T01:17:39;45.60;;;9.10;;
18752;SDS011;9505;50.882;5.350;2023-03-01T01:20:04;51.37;;;9.50;;
18752;SDS011;9505;50.882;5.350;2023-03-01T01:22:30;46.30;;;9.30;;
18752;SDS011;9505;50.882;5.350;2023-03-01T01:24:56;52.17;;;9.77;;
18752;SDS011;9505;50.882;5.350;2023-03-01T01:27:22;49.27;;;9.80;;
18752;SDS011;9505;50.882;5.350;2023-03-01T01:29:47;44.03;;;9.40;;
18752;SDS011;9505;50.882;5.350;2023-03-01T01:32:13;38.50;;;8.90;;
18752;SDS011;9505;50.882;5.350;2023-03-01T01:34:38;53.90;;;10.40;;
18752;SDS011;9505;50.882;5.350;2023-03-01T01:37:04;52.10;;;9.67;;
18752;SDS011;9505;50.882;5.350;2023-03-01T01:39:32;43.50;;;9.70;;
18752;SDS011;9505;50.882;5.350;2023-03-01T01:41:59;49.33;;;9.83;;
18752;SDS011;9505;50.882;5.350;2023-03-01T01:44:27;48.40;;;9.37;;
18752;SDS011;9505;50.882;5.350;2023-03-01T01:46:58;50.73;;;9.40;;
18752;SDS011;9505;50.882;5.350;2023-03-01T01:49:33;50.07;;;9.80;;
18752;SDS011;9505;50.882;5.350;2023-03-01T01:54:31;43.97;;;9.30;;
18752;SDS011;9505;50.882;5.350;2023-03-01T01:57:13;43.30;;;9.17;;
18752;SDS011;9505;50.882;5.350;2023-03-01T01:59:43;48.47;;;9.37;;
18752;SDS011;9505;50.882;5.350;2023-03-01T02:02:12;49.30;;;9.57;;
18752;SDS011;9505;50.882;5.350;2023-03-01T02:04:38;50.63;;;9.70;;
18752;SDS011;9505;50.882;5.350;2023-03-01T02:07:07;49.80;;;9.43;;
18752;SDS011;9505;50.882;5.350;2023-03-01T02:09:34;54.10;;;10.13;;
18752;SDS011;9505;50.882;5.350;2023-03-01T02:12:01;50.73;;;9.17;;
18752;SDS011;9505;50.882;5.350;2023-03-01T02:14:28;50.27;;;9.73;;
18752;SDS011;9505;50.882;5.350;2023-03-01T02:16:53;48.20;;;9.67;;
18752;SDS011;9505;50.882;5.350;2023-03-01T02:19:26;48.57;;;9.93;;
18752;SDS011;9505;50.882;5.350;2023-03-01T02:22:08;59.90;;;10.33;;
18752;SDS011;9505;50.882;5.350;2023-03-01T02:27:10;48.37;;;9.37;;
18752;SDS011;9505;50.882;5.350;2023-03-01T02:29:36;42.37;;;9.10;;
18752;SDS011;9505;50.882;5.350;2023-03-01T02:32:02;47.60;;;10.43;;
18752;SDS011;9505;50.882;5.350;2023-03-01T02:34:28;47.67;;;9.60;;
18752;SDS011;9505;50.882;5.350;2023-03-01T02:37:04;48.40;;;9.67;;
18752;SDS011;9505;50.882;5.350;2023-03-01T02:39:40;45.77;;;9.10;;
18752;SDS011;9505;50.882;5.350;2023-03-01T02:42:11;51.20;;;9.40;;
18752;SDS011;9505;50.882;5.350;2023-03-01T02:44:39;42.37;;;8.87;;
18752;SDS011;9505;50.882;5.350;2023-03-01T02:47:04;39.63;;;8.07;;
18752;SDS011;9505;50.882;5.350;2023-03-01T02:49:32;43.47;;;8.93;;
18752;SDS011;9505;50.882;5.350;2023-03-01T02:57:15;43.33;;;8.87;;
18752;SDS011;9505;50.882;5.350;2023-03-01T02:59:42;46.10;;;9.20;;
18752;SDS011;9505;50.882;5.350;2023-03-01T03:02:18;53.83;;;10.07;;
18752;SDS011;9505;50.882;5.350;2023-03-01T03:04:46;47.70;;;10.13;;
18752;SDS011;9505;50.882;5.350;2023-03-01T03:07:11;53.47;;;10.23;;
18752;SDS011;9505;50.882;5.350;2023-03-01T03:09:37;43.03;;;8.27;;
18752;SDS011;9505;50.882;5.350;2023-03-01T03:12:03;42.77;;;8.43;;
18752;SDS011;9505;50.882;5.350;2023-03-01T03:14:28;58.40;;;10.83;;
18752;SDS011;9505;50.882;5.350;2023-03-01T03:16:54;44.43;;;9.07;;
18752;SDS011;9505;50.882;5.350;2023-03-01T03:19:20;48.83;;;9.40;;
18752;SDS011;9505;50.882;5.350;2023-03-01T03:21:45;45.10;;;8.93;;
18752;SDS011;9505;50.882;5.350;2023-03-01T03:24:11;54.07;;;10.20;;
18752;SDS011;9505;50.882;5.350;2023-03-01T03:26:37;40.50;;;8.63;;
18752;SDS011;9505;50.882;5.350;2023-03-01T03:29:02;52.43;;;9.67;;
18752;SDS011;9505;50.882;5.350;2023-03-01T03:31:28;51.60;;;10.87;;
18752;SDS011;9505;50.882;5.350;2023-03-01T03:33:54;43.90;;;9.30;;
18752;SDS011;9505;50.882;5.350;2023-03-01T03:36:21;48.53;;;10.03;;
18752;SDS011;9505;50.882;5.350;2023-03-01T03:38:48;51.23;;;11.03;;
18752;SDS011;9505;50.882;5.350;2023-03-01T03:41:14;49.13;;;10.97;;
18752;SDS011;9505;50.882;5.350;2023-03-01T03:43:40;50.63;;;12.17;;
18752;SDS011;9505;50.882;5.350;2023-03-01T03:46:08;67.90;;;13.10;;
18752;SDS011;9505;50.882;5.350;2023-03-01T03:48:36;54.90;;;12.53;;
18752;SDS011;9505;50.882;5.350;2023-03-01T03:51:03;47.93;;;12.20;;
18752;SDS011;9505;50.882;5.350;2023-03-01T03:53:32;51.03;;;12.67;;
18752;SDS011;9505;50.882;5.350;2023-03-01T03:55:57;51.77;;;12.33;;
18752;SDS011;9505;50.882;5.350;2023-03-01T03:58:24;48.53;;;12.03;;
18752;SDS011;9505;50.882;5.350;2023-03-01T04:00:52;52.37;;;11.53;;
18752;SDS011;9505;50.882;5.350;2023-03-01T04:03:24;51.93;;;11.23;;
18752;SDS011;9505;50.882;5.350;2023-03-01T04:05:51;58.40;;;12.97;;
18752;SDS011;9505;50.882;5.350;2023-03-01T04:08:18;51.70;;;11.90;;
18752;SDS011;9505;50.882;5.350;2023-03-01T04:10:46;54.17;;;13.03;;
18752;SDS011;9505;50.882;5.350;2023-03-01T04:13:15;65.87;;;13.87;;
18752;SDS011;9505;50.882;5.350;2023-03-01T04:15:48;52.40;;;12.17;;
18752;SDS011;9505;50.882;5.350;2023-03-01T04:18:16;53.37;;;13.23;;
18752;SDS011;9505;50.882;5.350;2023-03-01T04:20:43;52.37;;;12.40;;
18752;SDS011;9505;50.882;5.350;2023-03-01T04:23:11;62.13;;;15.43;;
18752;SDS011;9505;50.882;5.350;2023-03-01T04:28:18;54.40;;;13.33;;
18752;SDS011;9505;50.882;5.350;2023-03-01T04:30:44;55.13;;;13.90;;
18752;SDS011;9505;50.882;5.350;2023-03-01T04:33:10;55.27;;;13.93;;
18752;SDS011;9505;50.882;5.350;2023-03-01T04:35:36;55.27;;;12.70;;
18752;SDS011;9505;50.882;5.350;2023-03-01T04:38:03;57.40;;;14.53;;
18752;SDS011;9505;50.882;5.350;2023-03-01T04:40:30;55.57;;;14.33;;
18752;SDS011;9505;50.882;5.350;2023-03-01T04:42:56;52.47;;;14.13;;
18752;SDS011;9505;50.882;5.350;2023-03-01T04:45:22;73.43;;;16.13;;
18752;SDS011;9505;50.882;5.350;2023-03-01T04:47:47;52.37;;;13.67;;
18752;SDS011;9505;50.882;5.350;2023-03-01T04:50:16;55.93;;;13.67;;
18752;SDS011;9505;50.882;5.350;2023-03-01T04:52:45;59.87;;;15.23;;
18752;SDS011;9505;50.882;5.350;2023-03-01T04:55:12;64.03;;;15.00;;
18752;SDS011;9505;50.882;5.350;2023-03-01T04:57:37;54.13;;;13.40;;
18752;SDS011;9505;50.882;5.350;2023-03-01T05:00:04;58.10;;;13.77;;
18752;SDS011;9505;50.882;5.350;2023-03-01T05:02:45;62.90;;;15.00;;
18752;SDS011;9505;50.882;5.350;2023-03-01T05:05:22;62.67;;;15.00;;
18752;SDS011;9505;50.882;5.350;2023-03-01T05:07:53;59.40;;;14.50;;
18752;SDS011;9505;50.882;5.350;2023-03-01T05:10:20;54.07;;;13.90;;
18752;SDS011;9505;50.882;5.350;2023-03-01T05:12:46;49.10;;;14.30;;
18752;SDS011;9505;50.882;5.350;2023-03-01T05:15:12;58.47;;;14.57;;
18752;SDS011;9505;50.882;5.350;2023-03-01T05:17:39;62.37;;;15.10;;
18752;SDS011;9505;50.882;5.350;2023-03-01T05:20:04;63.53;;;15.50;;
18752;SDS011;9505;50.882;5.350;2023-03-01T05:22:34;62.70;;;14.90;;
18752;SDS011;9505;50.882;5.350;2023-03-01T05:25:00;58.03;;;14.20;;
18752;SDS011;9505;50.882;5.350;2023-03-01T05:27:26;68.20;;;15.27;;
18752;SDS011;9505;50.882;5.350;2023-03-01T05:29:52;53.67;;;14.27;;
18752;SDS011;9505;50.882;5.350;2023-03-01T05:32:17;67.23;;;15.63;;
18752;SDS011;9505;50.882;5.350;2023-03-01T05:34:43;56.33;;;14.57;;
18752;SDS011;9505;50.882;5.350;2023-03-01T05:37:11;58.87;;;15.43;;
18752;SDS011;9505;50.882;5.350;2023-03-01T05:39:37;57.27;;;14.30;;
18752;SDS011;9505;50.882;5.350;2023-03-01T05:42:02;62.87;;;14.53;;
18752;SDS011;9505;50.882;5.350;2023-03-01T05:44:30;58.03;;;13.97;;
18752;SDS011;9505;50.882;5.350;2023-03-01T05:46:56;54.50;;;14.10;;
18752;SDS011;9505;50.882;5.350;2023-03-01T05:49:21;53.53;;;14.10;;
18752;SDS011;9505;50.882;5.350;2023-03-01T05:51:51;52.10;;;13.00;;
18752;SDS011;9505;50.882;5.350;2023-03-01T05:54:18;58.50;;;15.00;;
18752;SDS011;9505;50.882;5.350;2023-03-01T05:56:45;60.83;;;14.03;;
18752;SDS011;9505;50.882;5.350;2023-03-01T05:59:10;58.77;;;13.73;;
18752;SDS011;9505;50.882;5.350;2023-03-01T06:01:36;64.70;;;15.13;;
18752;SDS011;9505;50.882;5.350;2023-03-01T06:04:03;63.73;;;15.80;;
18752;SDS011;9505;50.882;5.350;2023-03-01T06:06:29;62.07;;;16.03;;
18752;SDS011;9505;50.882;5.350;2023-03-01T06:08:58;58.57;;;14.27;;
18752;SDS011;9505;50.882;5.350;2023-03-01T06:11:24;60.80;;;15.60;;
18752;SDS011;9505;50.882;5.350;2023-03-01T06:13:49;57.47;;;14.73;;
18752;SDS011;9505;50.882;5.350;2023-03-01T06:16:15;57.73;;;14.43;;
18752;SDS011;9505;50.882;5.350;2023-03-01T06:18:41;69.13;;;15.00;;
18752;SDS011;9505;50.882;5.350;2023-03-01T06:21:07;57.07;;;14.07;;
18752;SDS011;9505;50.882;5.350;2023-03-01T06:23:33;71.83;;;16.90;;
18752;SDS011;9505;50.882;5.350;2023-03-01T06:25:59;78.63;;;16.47;;
18752;SDS011;9505;50.882;5.350;2023-03-01T06:28:26;66.17;;;14.93;;
18752;SDS011;9505;50.882;5.350;2023-03-01T06:30:51;71.40;;;14.17;;
18752;SDS011;9505;50.882;5.350;2023-03-01T06:33:17;57.00;;;13.40;;
18752;SDS011;9505;50.882;5.350;2023-03-01T06:35:45;60.73;;;14.30;;
18752;SDS011;9505;50.882;5.350;2023-03-01T06:38:12;59.97;;;15.10;;
18752;SDS011;9505;50.882;5.350;2023-03-01T06:40:40;57.30;;;13.90;;
18752;SDS011;9505;50.882;5.350;2023-03-01T06:43:06;58.60;;;14.93;;
18752;SDS011;9505;50.882;5.350;2023-03-01T06:45:32;65.27;;;14.60;;
18752;SDS011;9505;50.882;5.350;2023-03-01T06:48:04;60.43;;;14.67;;
18752;SDS011;9505;50.882;5.350;2023-03-01T06:50:30;66.20;;;14.43;;
18752;SDS011;9505;50.882;5.350;2023-03-01T06:52:57;56.90;;;13.60;;
18752;SDS011;9505;50.882;5.350;2023-03-01T06:55:23;66.90;;;14.50;;
18752;SDS011;9505;50.882;5.350;2023-03-01T06:57:53;62.27;;;14.10;;
18752;SDS011;9505;50.882;5.350;2023-03-01T07:00:23;69.43;;;15.70;;
18752;SDS011;9505;50.882;5.350;2023-03-01T07:02:49;64.97;;;15.40;;
18752;SDS011;9505;50.882;5.350;2023-03-01T07:05:15;56.13;;;14.60;;
18752;SDS011;9505;50.882;5.350;2023-03-01T07:07:41;79.63;;;17.07;;
18752;SDS011;9505;50.882;5.350;2023-03-01T07:10:07;66.60;;;15.83;;
18752;SDS011;9505;50.882;5.350;2023-03-01T07:12:35;65.10;;;16.07;;
18752;SDS011;9505;50.882;5.350;2023-03-01T07:15:00;67.07;;;16.53;;
18752;SDS011;9505;50.882;5.350;2023-03-01T07:17:26;67.50;;;16.90;;
18752;SDS011;9505;50.882;5.350;2023-03-01T07:19:51;65.20;;;15.63;;
18752;SDS011;9505;50.882;5.350;2023-03-01T07:22:17;68.17;;;17.77;;
18752;SDS011;9505;50.882;5.350;2023-03-01T07:24:43;69.87;;;17.53;;
18752;SDS011;9505;50.882;5.350;2023-03-01T07:27:09;74.40;;;18.00;;
18752;SDS011;9505;50.882;5.350;2023-03-01T07:29:34;66.50;;;17.03;;
18752;SDS011;9505;50.882;5.350;2023-03-01T07:32:01;68.10;;;17.97;;
18752;SDS011;9505;50.882;5.350;2023-03-01T07:34:27;70.87;;;18.30;;
18752;SDS011;9505;50.882;5.350;2023-03-01T07:36:53;64.90;;;17.90;;
18752;SDS011;9505;50.882;5.350;2023-03-01T07:39:19;69.07;;;18.20;;
18752;SDS011;9505;50.882;5.350;2023-03-01T07:41:44;74.37;;;19.00;;
18752;SDS011;9505;50.882;5.350;2023-03-01T07:44:10;72.40;;;18.63;;
18752;SDS011;9505;50.882;5.350;2023-03-01T07:46:36;64.73;;;18.73;;
18752;SDS011;9505;50.882;5.350;2023-03-01T07:49:01;67.07;;;18.90;;
18752;SDS011;9505;50.882;5.350;2023-03-01T07:51:27;62.00;;;17.70;;
18752;SDS011;9505;50.882;5.350;2023-03-01T07:53:52;68.33;;;19.33;;
18752;SDS011;9505;50.882;5.350;2023-03-01T07:56:18;68.90;;;19.48;;
18752;SDS011;9505;50.882;5.350;2023-03-01T07:58:44;67.10;;;19.50;;
18752;SDS011;9505;50.882;5.350;2023-03-01T08:01:14;72.20;;;19.40;;
18752;SDS011;9505;50.882;5.350;2023-03-01T08:03:41;69.72;;;19.25;;
18752;SDS011;9505;50.882;5.350;2023-03-01T08:06:09;68.93;;;18.55;;
18752;SDS011;9505;50.882;5.350;2023-03-01T08:08:35;63.33;;;18.17;;
18752;SDS011;9505;50.882;5.350;2023-03-01T08:11:02;62.78;;;17.88;;
18752;SDS011;9505;50.882;5.350;2023-03-01T08:13:30;62.40;;;16.95;;
18752;SDS011;9505;50.882;5.350;2023-03-01T08:16:03;61.90;;;17.23;;
18752;SDS011;9505;50.882;5.350;2023-03-01T08:18:30;58.33;;;16.35;;
18752;SDS011;9505;50.882;5.350;2023-03-01T08:20:55;61.25;;;16.35;;
18752;SDS011;9505;50.882;5.350;2023-03-01T08:23:25;52.88;;;14.25;;
18752;SDS011;9505;50.882;5.350;2023-03-01T08:25:51;55.85;;;14.85;;
18752;SDS011;9505;50.882;5.350;2023-03-01T08:28:17;56.65;;;14.70;;
18752;SDS011;9505;50.882;5.350;2023-03-01T08:30:43;46.05;;;11.93;;
18752;SDS011;9505;50.882;5.350;2023-03-01T08:33:09;51.72;;;13.65;;
18752;SDS011;9505;50.882;5.350;2023-03-01T08:35:34;54.33;;;12.38;;
18752;SDS011;9505;50.882;5.350;2023-03-01T08:38:00;48.53;;;12.18;;
18752;SDS011;9505;50.882;5.350;2023-03-01T08:40:25;40.13;;;11.60;;
18752;SDS011;9505;50.882;5.350;2023-03-01T08:42:51;51.63;;;12.95;;
18752;SDS011;9505;50.882;5.350;2023-03-01T08:45:17;46.35;;;11.50;;
18752;SDS011;9505;50.882;5.350;2023-03-01T08:47:43;44.80;;;11.10;;
18752;SDS011;9505;50.882;5.350;2023-03-01T08:50:10;39.53;;;11.05;;
18752;SDS011;9505;50.882;5.350;2023-03-01T08:52:35;51.42;;;12.68;;
18752;SDS011;9505;50.882;5.350;2023-03-01T08:55:01;48.30;;;12.02;;
18752;SDS011;9505;50.882;5.350;2023-03-01T08:57:27;45.40;;;11.23;;
18752;SDS011;9505;50.882;5.350;2023-03-01T08:59:52;50.03;;;12.75;;
18752;SDS011;9505;50.882;5.350;2023-03-01T09:02:20;51.95;;;12.02;;
18752;SDS011;9505;50.882;5.350;2023-03-01T09:04:46;54.85;;;11.45;;
18752;SDS011;9505;50.882;5.350;2023-03-01T09:07:12;53.35;;;12.20;;
18752;SDS011;9505;50.882;5.350;2023-03-01T09:09:38;44.88;;;11.40;;
18752;SDS011;9505;50.882;5.350;2023-03-01T09:12:03;49.95;;;11.65;;
18752;SDS011;9505;50.882;5.350;2023-03-01T09:14:29;46.00;;;10.63;;
18752;SDS011;9505;50.882;5.350;2023-03-01T09:16:55;54.78;;;11.65;;
18752;SDS011;9505;50.882;5.350;2023-03-01T09:19:21;55.20;;;12.13;;
18752;SDS011;9505;50.882;5.350;2023-03-01T09:21:46;49.15;;;10.88;;
18752;SDS011;9505;50.882;5.350;2023-03-01T09:24:20;50.72;;;10.93;;
18752;SDS011;9505;50.882;5.350;2023-03-01T09:26:46;49.70;;;11.98;;
18752;SDS011;9505;50.882;5.350;2023-03-01T09:29:12;46.55;;;10.90;;
18752;SDS011;9505;50.882;5.350;2023-03-01T09:31:39;50.67;;;11.43;;
18752;SDS011;9505;50.882;5.350;2023-03-01T09:34:05;56.63;;;12.52;;
18752;SDS011;9505;50.882;5.350;2023-03-01T09:36:31;48.13;;;11.18;;
18752;SDS011;9505;50.882;5.350;2023-03-01T09:38:57;55.40;;;11.50;;
18752;SDS011;9505;50.882;5.350;2023-03-01T09:46:43;54.72;;;11.60;;
18752;SDS011;9505;50.882;5.350;2023-03-01T09:49:17;53.00;;;11.50;;
18752;SDS011;9505;50.882;5.350;2023-03-01T09:51:56;61.03;;;12.90;;
18752;SDS011;9505;50.882;5.350;2023-03-01T09:54:24;49.00;;;11.18;;
18752;SDS011;9505;50.882;5.350;2023-03-01T09:59:28;47.45;;;10.90;;
18752;SDS011;9505;50.882;5.350;2023-03-01T10:03:01;49.53;;;11.77;;
18752;SDS011;9505;50.882;5.350;2023-03-01T10:05:41;55.22;;;11.88;;
18752;SDS011;9505;50.882;5.350;2023-03-01T10:10:52;52.08;;;11.57;;
18752;SDS011;9505;50.882;5.350;2023-03-01T10:15:49;50.70;;;11.27;;
18752;SDS011;9505;50.882;5.350;2023-03-01T10:18:21;62.60;;;13.07;;
18752;SDS011;9505;50.882;5.350;2023-03-01T10:23:25;60.63;;;12.30;;
18752;SDS011;9505;50.882;5.350;2023-03-01T10:28:31;54.95;;;11.63;;
18752;SDS011;9505;50.882;5.350;2023-03-01T10:31:13;49.95;;;10.85;;
18752;SDS011;9505;50.882;5.350;2023-03-01T10:33:43;59.33;;;12.38;;
18752;SDS011;9505;50.882;5.350;2023-03-01T10:36:09;51.83;;;11.65;;
18752;SDS011;9505;50.882;5.350;2023-03-01T10:38:53;50.80;;;11.65;;
18752;SDS011;9505;50.882;5.350;2023-03-01T10:41:24;52.85;;;11.52;;
18752;SDS011;9505;50.882;5.350;2023-03-01T10:43:54;67.20;;;12.63;;
18752;SDS011;9505;50.882;5.350;2023-03-01T10:46:22;53.45;;;11.80;;
18752;SDS011;9505;50.882;5.350;2023-03-01T10:48:57;46.45;;;11.60;;
18752;SDS011;9505;50.882;5.350;2023-03-01T10:51:32;50.45;;;11.10;;
18752;SDS011;9505;50.882;5.350;2023-03-01T10:53:58;55.60;;;12.73;;
18752;SDS011;9505;50.882;5.350;2023-03-01T10:56:24;43.78;;;11.20;;
18752;SDS011;9505;50.882;5.350;2023-03-01T10:58:57;51.08;;;11.93;;
18752;SDS011;9505;50.882;5.350;2023-03-01T11:01:32;53.97;;;11.73;;
18752;SDS011;9505;50.882;5.350;2023-03-01T11:06:31;44.33;;;11.30;;
18752;SDS011;9505;50.882;5.350;2023-03-01T11:08:57;50.35;;;11.50;;
18752;SDS011;9505;50.882;5.350;2023-03-01T11:11:39;50.80;;;10.55;;
18752;SDS011;9505;50.882;5.350;2023-03-01T11:14:18;47.58;;;10.52;;
18752;SDS011;9505;50.882;5.350;2023-03-01T11:16:58;49.63;;;10.88;;
18752;SDS011;9505;50.882;5.350;2023-03-01T11:19:26;56.38;;;12.48;;
18752;SDS011;9505;50.882;5.350;2023-03-01T11:24:39;60.03;;;12.80;;
18752;SDS011;9505;50.882;5.350;2023-03-01T11:27:12;54.78;;;11.65;;
18752;SDS011;9505;50.882;5.350;2023-03-01T11:30:12;55.50;;;12.45;;
18752;SDS011;9505;50.882;5.350;2023-03-01T11:32:46;61.53;;;12.65;;
18752;SDS011;9505;50.882;5.350;2023-03-01T11:35:19;48.40;;;11.02;;
18752;SDS011;9505;50.882;5.350;2023-03-01T11:46:51;52.40;;;10.93;;
18752;SDS011;9505;50.882;5.350;2023-03-01T12:38:49;51.42;;;11.77;;
18752;SDS011;9505;50.882;5.350;2023-03-01T12:41:42;60.25;;;12.55;;
18752;SDS011;9505;50.882;5.350;2023-03-01T12:49:57;49.30;;;11.32;;
18752;SDS011;9505;50.882;5.350;2023-03-01T12:52:32;57.47;;;12.70;;
18752;SDS011;9505;50.882;5.350;2023-03-01T12:54:58;54.70;;;12.93;;
18752;SDS011;9505;50.882;5.350;2023-03-01T13:02:58;56.15;;;12.25;;
18752;SDS011;9505;50.882;5.350;2023-03-01T13:05:32;49.13;;;11.55;;
18752;SDS011;9505;50.882;5.350;2023-03-01T13:08:05;69.57;;;13.85;;
18752;SDS011;9505;50.882;5.350;2023-03-01T13:10:41;56.53;;;12.20;;
18752;SDS011;9505;50.882;5.350;2023-03-01T13:13:19;47.80;;;11.20;;
18752;SDS011;9505;50.882;5.350;2023-03-01T13:15:45;43.50;;;10.88;;
18752;SDS011;9505;50.882;5.350;2023-03-01T13:23:29;51.25;;;11.25;;
18752;SDS011;9505;50.882;5.350;2023-03-01T13:26:02;52.53;;;11.40;;
18752;SDS011;9505;50.882;5.350;2023-03-01T13:33:51;41.47;;;10.73;;
18752;SDS011;9505;50.882;5.350;2023-03-01T13:46:52;42.72;;;10.23;;
18752;SDS011;9505;50.882;5.350;2023-03-01T13:49:25;43.08;;;10.60;;
18752;SDS011;9505;50.882;5.350;2023-03-01T13:51:53;47.17;;;10.57;;
18752;SDS011;9505;50.882;5.350;2023-03-01T13:54:32;44.85;;;10.05;;
18752;SDS011;9505;50.882;5.350;2023-03-01T13:56:58;38.10;;;9.27;;
18752;SDS011;9505;50.882;5.350;2023-03-01T13:59:25;42.50;;;9.98;;
18752;SDS011;9505;50.882;5.350;2023-03-01T14:02:00;39.33;;;9.90;;
18752;SDS011;9505;50.882;5.350;2023-03-01T14:04:27;46.22;;;10.18;;
18752;SDS011;9505;50.882;5.350;2023-03-01T14:07:13;42.92;;;10.20;;
18752;SDS011;9505;50.882;5.350;2023-03-01T14:09:51;46.00;;;10.30;;
18752;SDS011;9505;50.882;5.350;2023-03-01T14:20:23;43.35;;;10.30;;
18752;SDS011;9505;50.882;5.350;2023-03-01T14:22:56;51.50;;;10.68;;
18752;SDS011;9505;50.882;5.350;2023-03-01T14:30:47;38.72;;;9.38;;
18752;SDS011;9505;50.882;5.350;2023-03-01T14:33:18;48.55;;;10.77;;
18752;SDS011;9505;50.882;5.350;2023-03-01T14:36:00;38.70;;;9.38;;
18752;SDS011;9505;50.882;5.350;2023-03-01T14:38:44;48.47;;;10.48;;
18752;SDS011;9505;50.882;5.350;2023-03-01T14:41:15;51.28;;;10.40;;
18752;SDS011;9505;50.882;5.350;2023-03-01T14:43:47;47.80;;;11.70;;
18752;SDS011;9505;50.882;5.350;2023-03-01T14:46:58;44.00;;;9.80;;
18752;SDS011;9505;50.882;5.350;2023-03-01T14:51:43;41.28;;;9.93;;
18752;SDS011;9505;50.882;5.350;2023-03-01T14:56:58;46.92;;;10.80;;
18752;SDS011;9505;50.882;5.350;2023-03-01T14:59:25;51.75;;;11.63;;
18752;SDS011;9505;50.882;5.350;2023-03-01T15:01:51;48.30;;;11.07;;
18752;SDS011;9505;50.882;5.350;2023-03-01T15:04:20;71.22;;;12.75;;
18752;SDS011;9505;50.882;5.350;2023-03-01T15:06:47;76.20;;;13.45;;
18752;SDS011;9505;50.882;5.350;2023-03-01T15:09:16;69.40;;;12.60;;
18752;SDS011;9505;50.882;5.350;2023-03-01T15:11:43;47.15;;;9.80;;
18752;SDS011;9505;50.882;5.350;2023-03-01T15:14:29;50.78;;;10.18;;
18752;SDS011;9505;50.882;5.350;2023-03-01T15:17:21;70.00;;;12.48;;
18752;SDS011;9505;50.882;5.350;2023-03-01T15:19:58;65.15;;;12.38;;
18752;SDS011;9505;50.882;5.350;2023-03-01T15:22:25;43.70;;;9.43;;
18752;SDS011;9505;50.882;5.350;2023-03-01T15:24:52;44.55;;;9.20;;
18752;SDS011;9505;50.882;5.350;2023-03-01T15:27:19;74.00;;;12.80;;
18752;SDS011;9505;50.882;5.350;2023-03-01T15:29:50;81.28;;;12.75;;
18752;SDS011;9505;50.882;5.350;2023-03-01T15:34:50;88.20;;;13.98;;
18752;SDS011;9505;50.882;5.350;2023-03-01T15:42:56;78.80;;;13.18;;
18752;SDS011;9505;50.882;5.350;2023-03-01T15:45:32;78.60;;;13.32;;
18752;SDS011;9505;50.882;5.350;2023-03-01T15:48:04;85.05;;;13.55;;
18752;SDS011;9505;50.882;5.350;2023-03-01T15:50:40;77.35;;;13.32;;
18752;SDS011;9505;50.882;5.350;2023-03-01T15:53:08;89.18;;;13.48;;
18752;SDS011;9505;50.882;5.350;2023-03-01T15:55:39;85.68;;;13.52;;
18752;SDS011;9505;50.882;5.350;2023-03-01T15:58:06;62.92;;;11.30;;
18752;SDS011;9505;50.882;5.350;2023-03-01T16:00:37;57.15;;;10.38;;
18752;SDS011;9505;50.882;5.350;2023-03-01T16:03:04;47.40;;;9.35;;
18752;SDS011;9505;50.882;5.350;2023-03-01T16:05:31;89.63;;;13.48;;
18752;SDS011;9505;50.882;5.350;2023-03-01T16:07:59;74.22;;;12.52;;
18752;SDS011;9505;50.882;5.350;2023-03-01T16:10:25;84.18;;;13.23;;
18752;SDS011;9505;50.882;5.350;2023-03-01T16:12:52;61.20;;;9.73;;
18752;SDS011;9505;50.882;5.350;2023-03-01T16:15:19;46.75;;;9.35;;
18752;SDS011;9505;50.882;5.350;2023-03-01T16:17:47;56.15;;;9.95;;
18752;SDS011;9505;50.882;5.350;2023-03-01T16:20:12;73.53;;;11.77;;
18752;SDS011;9505;50.882;5.350;2023-03-01T16:22:41;79.50;;;13.23;;
18752;SDS011;9505;50.882;5.350;2023-03-01T16:25:08;63.20;;;11.38;;
18752;SDS011;9505;50.882;5.350;2023-03-01T16:27:41;64.63;;;10.93;;
18752;SDS011;9505;50.882;5.350;2023-03-01T16:30:09;56.53;;;9.85;;
18752;SDS011;9505;50.882;5.350;2023-03-01T16:32:42;44.15;;;8.35;;
18752;SDS011;9505;50.882;5.350;2023-03-01T16:35:09;48.97;;;9.52;;
18752;SDS011;9505;50.882;5.350;2023-03-01T16:37:36;76.60;;;12.00;;
18752;SDS011;9505;50.882;5.350;2023-03-01T16:40:03;92.75;;;13.82;;
18752;SDS011;9505;50.882;5.350;2023-03-01T16:42:36;75.90;;;11.98;;
18752;SDS011;9505;50.882;5.350;2023-03-01T16:45:02;74.90;;;11.85;;
18752;SDS011;9505;50.882;5.350;2023-03-01T16:47:29;46.20;;;8.43;;
18752;SDS011;9505;50.882;5.350;2023-03-01T16:49:54;40.97;;;7.47;;
18752;SDS011;9505;50.882;5.350;2023-03-01T16:52:21;62.50;;;10.55;;
18752;SDS011;9505;50.882;5.350;2023-03-01T16:54:47;85.65;;;12.45;;
18752;SDS011;9505;50.882;5.350;2023-03-01T16:57:13;62.33;;;9.70;;
18752;SDS011;9505;50.882;5.350;2023-03-01T16:59:39;54.28;;;8.48;;
18752;SDS011;9505;50.882;5.350;2023-03-01T17:02:05;60.08;;;9.98;;
18752;SDS011;9505;50.882;5.350;2023-03-01T17:04:35;74.95;;;11.32;;
18752;SDS011;9505;50.882;5.350;2023-03-01T17:07:01;75.45;;;11.27;;
18752;SDS011;9505;50.882;5.350;2023-03-01T17:09:27;56.42;;;9.07;;
18752;SDS011;9505;50.882;5.350;2023-03-01T17:11:53;44.65;;;7.72;;
18752;SDS011;9505;50.882;5.350;2023-03-01T17:14:19;66.20;;;10.68;;
18752;SDS011;9505;50.882;5.350;2023-03-01T17:16:45;77.38;;;11.75;;
18752;SDS011;9505;50.882;5.350;2023-03-01T17:19:11;93.13;;;13.50;;
18752;SDS011;9505;50.882;5.350;2023-03-01T17:21:42;83.50;;;12.38;;